Latest Weather Observations for Lake Grace

IDW60801

Issued at 2:02 am WST Saturday 31 January 2015 (issued every 30 minutes, with the page automatically refreshed every 10 minutes)

About weather observations | Map of weather stations | Latest weather observations for WA | Other Formats
Station Details ID: 010911 Name: LAKE GRACE Lat: -33.10 Lon: 118.46 Height: 286.0 m
Data from the previous 72 hours. | See also: Recent months at Lake Grace
Date/Time
WST
Temp
°C
App
Temp
°C
Dew
Point
Rel
Hum
%
Delta-T
°C
Wind Press
QNH
hPa
Press
MSL
hPa
Rain
since 9 am
mm
Dir
 
Spd
km/h
Gust
km/h
Spd
kts
Gust
kts
31/02:00am 16.4 13.4 12.4 77 2.2 ESE 20 35 11 19 1018.1 1016.8 0.0
31/01:30am 16.7 12.5 12.5 76 2.3 ESE 26 39 14 21 1018.1 1016.8 0.0
31/01:00am 16.7 12.9 12.5 76 2.3 ESE 24 35 13 19 1018.2 1016.9 0.0
31/12:30am 16.8 12.8 11.9 73 2.7 ESE 24 35 13 19 1018.5 1017.2 0.0
31/12:00am 17.0 13.0 11.9 72 2.8 ESE 24 35 13 19 1018.4 1017.1 0.0
 
Date/Time
WST
Temp
°C
App
Temp
°C
Dew
Point
Rel
Hum
%
Delta-T
°C
Wind Press
QNH
hPa
Press
MSL
hPa
Rain
since 9 am
mm
Dir
 
Spd
km/h
Gust
km/h
Spd
kts
Gust
kts
30/11:30pm 17.0 13.0 11.7 71 2.9 ESE 24 33 13 18 1018.4 1017.1 0.0
30/11:00pm 17.2 13.2 11.9 71 2.9 ESE 24 37 13 20 1018.7 1017.4 0.0
30/10:30pm 17.4 13.5 12.1 71 3.0 ESE 24 35 13 19 1018.9 1017.6 0.0
30/10:00pm 17.5 13.3 12.4 72 2.9 ESE 26 41 14 22 1018.9 1017.6 0.0
30/09:31pm 17.6 13.0 12.3 71 3.0 SE 28 48 15 26 1018.5 1017.2 0.0
30/09:30pm 17.7 13.1 12.4 71 3.0 ESE 28 44 15 24 1018.5 1017.2 0.0
30/09:02pm 18.5 13.6 12.5 68 3.4 SE 30 48 16 26 1018.2 1016.9 0.0
30/09:00pm 18.6 13.3 12.6 68 3.4 SE 32 48 17 26 1018.2 1016.9 0.0
30/08:30pm 19.6 14.9 11.9 61 4.3 SE 28 41 15 22 1017.7 1016.4 0.0
30/08:00pm 20.7 15.3 12.1 58 4.9 SE 32 50 17 27 1017.3 1015.9 0.0
30/07:53pm 21.1 16.4 12.0 56 5.2 SE 28 46 15 25 1017.1 1015.7 0.0
30/07:30pm 22.1 16.6 11.8 52 5.9 ESE 32 43 17 23 1016.5 1015.2 0.0
30/07:06pm 23.0 17.8 11.7 49 6.4 ESE 30 48 16 26 1016.2 1014.9 0.0
30/07:00pm 23.2 17.7 11.9 49 6.5 SE 32 46 17 25 1016.1 1014.8 0.0
30/06:30pm 24.6 18.5 10.5 41 7.9 SE 33 44 18 24 1015.5 1014.2 0.0
30/06:00pm 26.0 20.7 9.8 36 9.1 ESE 28 39 15 21 1015.2 1013.9 0.0
30/05:30pm 27.1 20.8 7.5 29 10.6 ESE 30 43 16 23 1014.9 1013.6 0.0
30/05:00pm 28.7 22.2 8.9 29 11.1 ESE 33 46 18 25 1014.6 1013.3 0.0
30/04:30pm 29.0 22.1 8.7 28 11.3 ESE 35 52 19 28 1014.5 1013.1 0.0
30/04:27pm 29.1 22.5 8.7 28 11.4 ESE 33 52 18 28 1014.4 1013.0 0.0
30/04:00pm 29.7 22.9 7.0 24 12.3 ESE 32 46 17 25 1014.3 1012.9 0.0
30/03:40pm 30.3 23.8 8.1 25 12.3 ESE 32 50 17 27 1014.3 1012.9 0.0
30/03:30pm 30.4 23.7 8.2 25 12.4 ESE 33 46 18 25 1014.4 1013.0 0.0
30/03:00pm 31.9 26.2 6.9 21 13.7 ESE 26 41 14 22 1014.4 1013.0 0.0
30/02:30pm 32.1 25.6 4.8 18 14.5 E 28 39 15 21 1014.4 1013.0 0.0
30/02:00pm 32.4 26.3 6.6 20 14.1 ESE 28 41 15 22 1014.5 1013.1 0.0
30/01:45pm 32.4 26.3 6.6 20 14.1 ESE 28 46 15 25 1014.4 1013.0 0.0
30/01:30pm 32.2 26.1 6.4 20 14.1 ESE 28 43 15 23 1014.6 1013.3 0.0
30/01:05pm 31.8 25.2 6.1 20 13.9 ESE 30 48 16 26 1014.7 1013.4 0.0
30/01:00pm 31.8 25.6 6.1 20 13.9 ESE 28 41 15 22 1014.8 1013.5 0.0
30/12:30pm 31.4 25.4 7.1 22 13.4 ESE 28 46 15 25 1014.9 1013.6 0.0
30/12:28pm 31.1 25.2 7.5 23 13.0 ESE 28 46 15 25 1014.8 1013.5 0.0
30/12:00pm 30.8 24.3 6.6 22 13.1 ESE 30 43 16 23 1015.1 1013.8 0.0
30/11:30am 30.3 25.1 8.7 26 12.1 ESE 26 44 14 24 1015.6 1014.3 0.0
30/11:00am 28.2 23.2 8.0 28 11.1 ESE 24 33 13 18 1015.8 1014.5 0.0
30/10:30am 26.6 22.1 9.9 35 9.4 ESE 24 33 13 18 1016.3 1015.0 0.0
30/10:00am 24.9 20.4 10.0 39 8.3 SE 24 39 13 21 1016.7 1015.4 0.0
30/09:30am 24.3 20.0 10.6 42 7.7 ESE 24 35 13 19 1016.5 1015.2 0.0
30/09:00am 24.8 21.8 12.7 47 7.1 SE 20 28 11 15 1016.5 1015.2 0.0
30/08:30am 22.5 21.7 13.0 55 5.5 SE 9 15 5 8 1016.6 1015.3 0.0
30/08:00am 22.0 21.2 12.8 56 5.3 SE 9 19 5 10 1016.5 1015.2 0.0
30/07:30am 21.6 18.6 12.7 57 5.1 ESE 20 30 11 16 1015.4 1014.1 0.0
30/07:00am 20.6 17.3 14.0 66 3.9 ESE 24 35 13 19 1015.4 1014.1 0.0
30/06:30am 19.7 17.1 14.9 74 2.8 SE 22 32 12 17 1015.6 1014.3 0.0
30/06:00am 19.4 17.6 14.4 73 2.9 ESE 17 30 9 16 1015.7 1014.4 0.0
30/05:30am 18.9 16.4 14.2 74 2.7 SE 20 32 11 17 1014.9 1013.6 0.0
30/05:00am 18.8 16.6 13.4 71 3.1 SE 17 24 9 13 1014.6 1013.3 0.0
30/04:30am 18.7 16.9 13.3 71 3.1 SSE 15 22 8 12 1014.4 1013.0 0.0
30/04:00am 19.1 17.4 12.6 66 3.7 SSE 13 20 7 11 1014.2 1012.8 0.0
30/03:30am 19.8 17.3 11.0 57 4.9 SSE 15 20 8 11 1013.8 1012.4 0.0
30/03:00am 21.1 18.6 8.4 44 6.8 SSE 11 19 6 10 1013.7 1012.3 0.0
30/02:30am 22.2 19.3 4.7 32 8.7 S 9 13 5 7 1013.7 1012.3 0.0
30/02:00am 23.0 19.6 4.0 29 9.4 S 11 17 6 9 1013.6 1012.2 0.0
30/01:30am 24.8 20.3 4.0 26 10.4 E 17 26 9 14 1013.0 1011.7 0.0
30/01:00am 25.0 19.9 3.0 24 10.9 E 19 28 10 15 1012.7 1011.4 0.0
30/12:30am 25.5 20.4 2.9 23 11.2 E 19 30 10 16 1012.6 1011.3 0.0
30/12:00am 25.9 21.0 1.9 21 11.7 ESE 17 30 9 16 1012.9 1011.6 0.0
 
Date/Time
WST
Temp
°C
App
Temp
°C
Dew
Point
Rel
Hum
%
Delta-T
°C
Wind Press
QNH
hPa
Press
MSL
hPa
Rain
since 9 am
mm
Dir
 
Spd
km/h
Gust
km/h
Spd
kts
Gust
kts
29/11:30pm 26.5 21.1 2.4 21 11.9 E 20 32 11 17 1012.9 1011.6 0.0
29/11:00pm 27.0 21.5 2.1 20 12.3 E 20 30 11 16 1012.7 1011.4 0.0
29/10:30pm 27.5 22.1 2.6 20 12.4 E 20 32 11 17 1012.7 1011.4 0.0
29/10:00pm 28.0 22.6 2.2 19 12.8 E 20 37 11 20 1012.5 1011.2 0.0
29/09:30pm 28.5 23.3 2.7 19 13.0 ESE 19 28 10 15 1012.3 1011.0 0.0
29/09:00pm 28.8 23.2 3.6 20 12.9 E 22 33 12 18 1012.0 1010.7 0.0
29/08:30pm 29.2 24.1 3.9 20 13.0 ESE 20 32 11 17 1011.8 1010.5 0.0
29/08:00pm 29.7 24.1 3.6 19 13.4 ESE 22 32 12 17 1011.3 1009.9 0.0
29/07:30pm 30.3 25.4 4.1 19 13.6 ESE 19 30 10 16 1011.0 1009.6 0.0
29/07:00pm 31.2 26.2 6.3 21 13.5 ESE 22 33 12 18 1010.4 1009.0 0.0
29/06:30pm 32.1 26.8 4.8 18 14.5 ESE 22 33 12 18 1010.1 1008.7 0.0
29/06:00pm 33.2 28.3 4.0 16 15.4 SE 19 26 10 14 1009.4 1008.1 0.0
29/05:30pm 33.6 28.5 4.3 16 15.6 SE 20 30 11 16 1009.2 1007.9 0.0
29/05:00pm 33.9 28.9 3.6 15 16.0 SE 19 30 10 16 1009.0 1007.7 0.0
29/04:30pm 34.8 29.6 2.3 13 16.8 SE 19 30 10 16 1009.1 1007.8 0.0
29/04:00pm 34.5 29.2 2.1 13 16.7 SE 19 30 10 16 1009.3 1008.0 0.0
29/03:30pm 34.2 30.0 3.9 15 16.1 SE 15 24 8 13 1009.8 1008.4 0.0
29/03:00pm 33.9 29.7 3.6 15 16.0 SE 15 24 8 13 1009.9 1008.5 0.0
29/02:30pm 34.0 29.8 3.7 15 16.0 SSE 15 22 8 12 1010.2 1008.8 0.0
29/02:00pm 33.1 30.1 2.0 14 15.9 SE 7 11 4 6 1010.6 1009.2 0.0
29/01:30pm 32.3 30.3 2.4 15 15.3 SE 2 6 1 3 1011.0 1009.6 0.0
29/01:00pm 32.3 30.3 2.4 15 15.3 WSW 2 7 1 4 1011.3 1009.9 0.0
29/12:30pm 31.9 28.9 2.1 15 15.1 N 7 11 4 6 1011.6 1010.3 0.0
29/12:00pm 31.7 28.1 2.8 16 14.8 N 11 17 6 9 1011.9 1010.6 0.0
29/11:30am 31.4 27.0 2.6 16 14.7 N 15 22 8 12 1012.3 1011.0 0.0
29/11:00am 31.3 27.4 3.4 17 14.4 WNW 13 20 7 11 1012.3 1011.0 0.0
29/10:30am 29.9 26.6 2.2 17 13.9 NNW 9 15 5 8 1012.5 1011.2 0.0
29/10:00am 27.6 24.1 3.3 21 12.3 N 11 17 6 9 1012.7 1011.4 0.0
29/09:30am 26.9 22.8 2.1 20 12.2 NW 13 19 7 10 1012.8 1011.5 0.0
29/09:00am 28.0 22.6 1.5 18 13.0 NW 19 26 10 14 1012.8 1011.5 0.0
29/08:30am 27.6 23.7 3.3 21 12.3 NE 13 19 7 10 1012.2 1010.9 0.0
29/08:00am 25.9 22.3 3.2 23 11.3 ENE 11 15 6 8 1012.2 1010.9 0.0
29/07:30am 25.0 21.4 5.2 28 10.2 ENE 13 19 7 10 1012.1 1010.8 0.0
29/07:00am 23.6 20.7 6.4 33 9.0 E 11 15 6 8 1012.1 1010.8 0.0
29/06:30am 22.5 20.2 7.5 38 7.9 E 9 15 5 8 1011.9 1010.6 0.0
29/06:00am 20.9 19.1 9.5 48 6.2 ESE 9 13 5 7 1011.7 1010.4 0.0
29/05:30am 19.4 17.9 10.7 57 4.8 SE 9 11 5 6 1011.4 1010.0 0.0
29/05:00am 19.9 18.5 10.9 56 5.0 SE 9 13 5 7 1011.0 1009.6 0.0
29/04:30am 20.7 18.9 10.8 53 5.5 ESE 11 17 6 9 1010.8 1009.4 0.0
29/04:00am 21.3 19.1 10.8 51 5.8 ESE 13 19 7 10 1010.5 1009.1 0.0
29/03:30am 21.1 18.7 11.4 54 5.4 ESE 15 20 8 11 1010.4 1009.0 0.0
29/03:00am 21.3 18.9 11.3 53 5.6 SE 15 22 8 12 1010.4 1009.0 0.0
29/02:30am 21.3 19.1 10.8 51 5.8 SE 13 20 7 11 1010.5 1009.1 0.0
29/02:00am 21.9 19.7 10.7 49 6.2 SE 13 19 7 10 1010.7 1009.3 0.0
29/01:30am 22.7 19.6 10.2 45 6.9 SE 17 22 9 12 1010.9 1009.5 0.0
29/01:00am 23.3 20.2 10.4 44 7.2 SE 17 24 9 13 1011.0 1009.6 0.0
29/12:30am 24.0 20.7 9.6 40 7.9 SE 17 24 9 13 1011.2 1009.8 0.0
29/12:00am 24.7 21.1 8.2 35 8.9 SE 17 22 9 12 1011.1 1009.7 0.0
 
Date/Time
WST
Temp
°C
App
Temp
°C
Dew
Point
Rel
Hum
%
Delta-T
°C
Wind Press
QNH
hPa
Press
MSL
hPa
Rain
since 9 am
mm
Dir
 
Spd
km/h
Gust
km/h
Spd
kts
Gust
kts
28/11:30pm 24.5 22.4 9.6 39 8.2 SSE 11 17 6 9 1011.2 1009.8 0.0
28/11:00pm 25.0 23.8 11.6 43 7.7 SE 9 13 5 7 1010.9 1009.5 0.0
28/10:30pm 25.4 24.1 12.6 45 7.5 SSE 11 20 6 11 1010.8 1009.4 0.0
28/10:00pm 25.9 23.1 12.7 44 7.8 S 19 32 10 17 1010.7 1009.3 0.0
28/09:30pm 26.1 22.5 12.9 44 7.8 S 24 41 13 22 1010.7 1009.3 0.0
28/09:00pm 26.7 23.2 13.4 43 7.9 S 24 44 13 24 1010.6 1009.2 0.0
28/08:30pm 27.0 22.5 13.7 44 8.0 SSW 30 50 16 27 1010.5 1009.1 0.0
28/08:00pm 27.1 22.1 13.4 42 8.2 SSW 32 56 17 30 1010.2 1008.8 0.0
28/07:30pm 28.6 23.4 11.6 34 9.9 SSW 30 57 16 31 1009.7 1008.3 0.0
28/07:29pm 28.9 24.2 11.9 35 10.0 SSW 28 57 15 31 1009.7 1008.3 0.0
28/07:20pm 29.7 26.2 10.8 31 10.9 SW 20 43 11 23 1009.6 1008.2 0.0
28/07:00pm 34.7 30.6 4.3 15 16.3 ENE 15 20 8 11 1008.0 1006.6 0.0
28/06:30pm 35.4 31.6 3.8 14 16.8 NE 13 20 7 11 1007.7 1006.3 0.0
28/06:00pm 36.5 32.7 3.7 13 17.6 E 13 20 7 11 1007.4 1006.0 0.0
28/05:30pm 36.9 32.0 4.0 13 17.7 NNE 19 30 10 16 1007.1 1005.7 0.0
28/05:00pm 37.0 32.5 4.0 13 17.8 ENE 17 32 9 17 1006.8 1005.4 0.0
28/04:30pm 37.1 32.0 4.1 13 17.8 ENE 20 35 11 19 1007.0 1005.6 0.0
28/04:00pm 36.8 31.9 3.9 13 17.7 ENE 19 30 10 16 1007.3 1005.9 0.0
28/03:30pm 36.8 32.4 4.9 14 17.4 ENE 17 32 9 17 1007.7 1006.3 0.0
28/03:00pm 37.0 33.2 4.0 13 17.8 NE 13 20 7 11 1008.2 1006.8 0.0
28/02:30pm 37.3 33.0 3.1 12 18.2 N 15 26 8 14 1008.5 1007.2 0.0
28/02:00pm 37.2 34.2 4.2 13 17.9 NE 9 17 5 9 1009.0 1007.7 0.0
28/01:30pm 36.0 32.8 5.3 15 16.8 N 11 19 6 10 1009.3 1008.0 0.0
28/01:00pm 35.6 31.2 5.0 15 16.6 NNW 17 32 9 17 1009.8 1008.4 0.0
28/12:30pm 35.8 30.9 5.1 15 16.7 N 20 32 11 17 1010.1 1008.7 0.0
28/12:00pm 36.4 31.6 4.6 14 17.3 NNE 19 30 10 16 1010.3 1008.9 0.0
28/11:30am 35.6 30.5 4.0 14 16.9 NNE 20 35 11 19 1010.8 1009.4 0.0
28/11:00am 35.4 30.2 3.8 14 16.8 NNE 20 30 11 16 1011.0 1009.6 0.0
28/10:30am 34.7 29.5 3.3 14 16.5 NNE 20 35 11 19 1011.4 1010.0 0.0
28/10:00am 33.6 28.0 3.4 15 15.8 NNE 22 35 12 19 1011.7 1010.4 0.0
28/09:30am 32.8 26.7 2.8 15 15.5 N 24 37 13 20 1011.9 1010.6 0.0
28/09:00am 32.1 26.4 3.1 16 15.0 NNE 22 33 12 18 1011.9 1010.6 0.0
28/08:30am 30.6 24.0 1.9 16 14.4 NNE 26 35 14 19 1012.0 1010.7 0.0
28/08:00am 29.4 23.3 2.6 18 13.5 NNE 24 37 13 20 1012.1 1010.8 0.0
28/07:30am 28.0 21.9 3.0 20 12.6 NE 24 37 13 20 1012.1 1010.8 0.0
28/07:00am 26.4 20.4 3.6 23 11.5 NE 24 35 13 19 1011.9 1010.6 0.0
28/06:30am 25.5 19.9 3.5 24 11.0 NE 22 33 12 18 1011.6 1010.3 0.0
28/06:00am 24.5 19.1 4.3 27 10.2 NE 22 32 12 17 1011.4 1010.0 0.0
28/05:30am 24.0 19.0 4.4 28 9.9 NE 20 32 11 17 1011.2 1009.8 0.0
28/05:00am 23.5 18.9 5.4 31 9.2 NE 19 30 10 16 1011.0 1009.6 0.0
28/04:30am 23.8 19.1 6.1 32 9.2 NE 20 30 11 16 1010.8 1009.4 0.0
28/04:00am 23.2 19.3 7.3 36 8.4 NE 17 28 9 15 1010.6 1009.2 0.0
28/03:30am 22.5 19.0 8.6 41 7.5 ENE 17 24 9 13 1010.3 1008.9 0.0
28/03:00am 22.4 19.1 9.6 44 7.0 ENE 17 26 9 14 1010.2 1008.8 0.0
28/02:30am 22.8 19.2 9.9 44 7.1 ENE 19 28 10 15 1010.0 1008.6 0.0

Other Formats:

Comma delimited format used in spreadsheet applications
http://www.bom.gov.au/fwo/IDW60801/IDW60801.95637.axf

JavaScript Object Notation format (JSON) in row-major order
http://www.bom.gov.au/fwo/IDW60801/IDW60801.95637.json